»·PEaware :: ASA241 KPDX-PANC

ASA241 :: KPDX-PANC

FLIGHT INFORMATION

Flight Status: Arrived
Operator:
Alaska Airlines
More flights by this operator :: More flights under this callsign
Pilot: Jake M. (20491)
Aircraft: AIRBUS A320
(A320)
More flights by this aircraft type
Origin: KPDX Portland Intl
United States
Destination: PANC Stevens Anchorage Intl
United States
More flights between these airports :: More routes between these airports
Route: +PTLD1 TOU PRYCE BKA LAIRE JOH WITTI4
File this flight plan on PilotEdge
Remarks: RMK / SIMBRIEF
Altitude:
(Current/Filed)
34,000ft
Speed:
(Current/Filed)
441kts
Departed: 11-Nov-19 08:22 PM
Arrived: 11-Nov-19 11:38 PM
Distance/Time
Traveled:
1336nm/3:16
Distance/Time
To Go:
Arrived

Flight Plot

Page will automatically refresh every two minutes.

Flight plan parsing failed; only flown route is shown


Map Options




Map Legend


Flown Route
Filed Route
Departure Airport
Arrival Airport
Navaid (VOR, NDB)
Fix

Horizontal Profiles

Position Reports

Time Latitude Longitude Heading Altitude Ground
Speed
11-Nov-19 19:56 45.587069 -122.593735 31 38ft 0kts
11-Nov-19 19:57 45.587069 -122.593735 31 38ft 0kts
11-Nov-19 19:58 45.587069 -122.593735 31 38ft 0kts
11-Nov-19 19:59 45.587069 -122.593735 31 38ft 0kts
11-Nov-19 20:00 45.587069 -122.593735 31 38ft 0kts
11-Nov-19 20:01 45.587069 -122.593735 31 38ft 0kts
11-Nov-19 20:02 45.587069 -122.593735 31 38ft 0kts
11-Nov-19 20:03 45.587069 -122.593735 31 38ft 0kts
11-Nov-19 20:04 45.587069 -122.593735 31 38ft 0kts
11-Nov-19 20:05 45.587069 -122.593735 31 38ft 0kts
11-Nov-19 20:06 45.587069 -122.593735 31 38ft 0kts
11-Nov-19 20:07 45.587069 -122.593735 31 38ft 0kts
11-Nov-19 20:08 45.587069 -122.593735 31 38ft 0kts
11-Nov-19 20:09 45.587069 -122.593735 31 38ft 0kts
11-Nov-19 20:10 45.587069 -122.593735 31 38ft 0kts
11-Nov-19 20:11 45.587064 -122.593740 32 38ft 1kts
11-Nov-19 20:12 45.586575 -122.594045 350 38ft 2kts
11-Nov-19 20:13 45.586309 -122.593802 307 38ft 0kts
11-Nov-19 20:14 45.586309 -122.593802 307 38ft 0kts
11-Nov-19 20:15 45.586444 -122.594051 307 38ft 5kts
11-Nov-19 20:17 45.587322 -122.598148 298 38ft 10kts
11-Nov-19 20:18 45.589857 -122.604449 310 38ft 22kts
11-Nov-19 20:19 45.593465 -122.612336 298 38ft 25kts
11-Nov-19 20:20 45.596315 -122.619994 256 38ft 12kts
11-Nov-19 20:21 45.596018 -122.620597 214 38ft 0kts
11-Nov-19 20:22 45.593893 -122.618300 118 38ft 52kts
11-Nov-19 20:23 45.575112 -122.564174 102 1943ft 182kts
11-Nov-19 20:24 45.572922 -122.480433 55 4302ft 256kts
11-Nov-19 20:25 45.640900 -122.476430 331 7582ft 281kts
11-Nov-19 20:26 45.711963 -122.531649 331 10712ft 303kts
11-Nov-19 20:27 45.793243 -122.594176 331 13111ft 340kts
11-Nov-19 20:28 45.878900 -122.660223 331 15781ft 353kts
11-Nov-19 20:29 45.967857 -122.728969 331 18167ft 366kts
11-Nov-19 20:30 46.060301 -122.800658 331 20319ft 378kts
11-Nov-19 20:31 46.155331 -122.874638 331 22259ft 389kts
11-Nov-19 20:32 46.253030 -122.951000 331 24018ft 400kts
11-Nov-19 20:33 46.352443 -123.029021 331 25609ft 410kts
11-Nov-19 20:34 46.454276 -123.109280 331 27064ft 419kts
11-Nov-19 20:35 46.557589 -123.191059 331 28383ft 428kts
11-Nov-19 20:35 46.646270 -123.261542 331 29402ft 434kts
11-Nov-19 20:37 46.771271 -123.361343 331 30689ft 443kts
11-Nov-19 20:38 46.880243 -123.448788 331 31867ft 445kts
11-Nov-19 20:38 46.970819 -123.521803 331 32944ft 443kts
11-Nov-19 20:39 47.079118 -123.609449 331 33995ft 442kts
11-Nov-19 20:41 47.206496 -123.713015 330 34014ft 453kts
11-Nov-19 20:41 47.298867 -123.788539 330 34013ft 452kts
11-Nov-19 20:43 47.428027 -123.894626 330 34012ft 452kts
11-Nov-19 20:43 47.520213 -123.970708 330 34012ft 452kts
11-Nov-19 20:44 47.630767 -124.062369 330 34012ft 452kts
11-Nov-19 20:46 47.759250 -124.169446 330 34013ft 452kts
11-Nov-19 20:46 47.851929 -124.247063 330 34014ft 452kts
11-Nov-19 20:47 47.962047 -124.339707 330 34014ft 452kts
11-Nov-19 20:48 48.072258 -124.432884 330 34014ft 452kts
11-Nov-19 20:49 48.182912 -124.526903 330 34012ft 452kts
11-Nov-19 20:50 48.293246 -124.621203 329 34013ft 452kts
11-Nov-19 20:51 48.400409 -124.722543 327 34013ft 452kts
11-Nov-19 20:52 48.507326 -124.824552 327 34012ft 452kts
11-Nov-19 20:53 48.614171 -124.927026 327 34012ft 452kts
11-Nov-19 20:54 48.720673 -125.029690 327 34013ft 452kts
11-Nov-19 20:55 48.827538 -125.133232 327 34015ft 452kts
11-Nov-19 20:56 48.934061 -125.236991 327 34016ft 452kts
11-Nov-19 20:57 49.040852 -125.341533 327 34016ft 452kts
11-Nov-19 20:58 49.147600 -125.446574 327 34016ft 452kts
11-Nov-19 20:59 49.253738 -125.551545 327 34015ft 452kts
11-Nov-19 21:00 49.359991 -125.657188 326 34015ft 452kts
11-Nov-19 21:01 49.465770 -125.762917 326 34015ft 452kts
11-Nov-19 21:02 49.569091 -125.866722 326 34014ft 452kts
11-Nov-19 21:03 49.675648 -125.974308 326 34011ft 463kts
11-Nov-19 21:04 49.784143 -126.084550 326 34012ft 464kts
11-Nov-19 21:05 49.892949 -126.195608 326 34011ft 463kts
11-Nov-19 21:06 50.000973 -126.306494 326 34011ft 463kts
11-Nov-19 21:07 50.109673 -126.418693 326 34010ft 463kts
11-Nov-19 21:08 50.217531 -126.530637 326 34010ft 463kts
11-Nov-19 21:09 50.325173 -126.642978 326 34011ft 463kts
11-Nov-19 21:10 50.433209 -126.756355 325 34012ft 463kts
11-Nov-19 21:11 50.540673 -126.869764 325 34013ft 463kts
11-Nov-19 21:12 50.648466 -126.984163 325 34013ft 463kts
11-Nov-19 21:13 50.755893 -127.098813 325 34013ft 464kts
11-Nov-19 21:14 50.863450 -127.214251 325 34013ft 464kts
11-Nov-19 21:15 50.970703 -127.330017 325 34012ft 464kts
11-Nov-19 21:16 51.077786 -127.446260 325 34013ft 464kts
11-Nov-19 21:17 51.183149 -127.561285 325 34012ft 464kts
11-Nov-19 21:18 51.290563 -127.679219 325 34012ft 464kts
11-Nov-19 21:19 51.397259 -127.797044 325 34012ft 464kts
11-Nov-19 21:20 51.503750 -127.915325 325 34012ft 464kts
11-Nov-19 21:21 51.610940 -128.035079 325 34012ft 464kts
11-Nov-19 21:22 51.717632 -128.154969 325 34011ft 464kts
11-Nov-19 21:23 51.824043 -128.275249 325 34011ft 464kts
11-Nov-19 21:24 51.930678 -128.396492 325 34012ft 463kts
11-Nov-19 21:25 52.036845 -128.517922 325 34012ft 463kts
11-Nov-19 21:26 52.143093 -128.640163 325 34012ft 463kts
11-Nov-19 21:27 52.246908 -128.761174 322 34012ft 463kts
11-Nov-19 21:28 52.349676 -128.891663 322 34011ft 463kts
11-Nov-19 21:29 52.451907 -129.022156 322 34009ft 463kts
11-Nov-19 21:30 52.554408 -129.153802 322 34010ft 463kts
11-Nov-19 21:31 52.656586 -129.285837 322 34011ft 463kts
11-Nov-19 21:32 52.758644 -129.418519 322 34012ft 463kts
11-Nov-19 21:33 52.860506 -129.551767 322 34013ft 463kts
11-Nov-19 21:34 52.962432 -129.685953 321 34013ft 463kts
11-Nov-19 21:35 53.063594 -129.819938 321 34013ft 463kts
11-Nov-19 21:36 53.165442 -129.955670 321 34013ft 463kts
11-Nov-19 21:37 53.266993 -130.091859 321 34013ft 464kts
11-Nov-19 21:38 53.368092 -130.228294 321 34012ft 463kts
11-Nov-19 21:39 53.469055 -130.365403 321 34012ft 463kts
11-Nov-19 21:40 53.569958 -130.503300 321 34012ft 463kts
11-Nov-19 21:41 53.670578 -130.641684 321 34012ft 463kts
11-Nov-19 21:42 53.770818 -130.780428 320 34012ft 463kts
11-Nov-19 21:43 53.871203 -130.920255 320 34012ft 463kts
11-Nov-19 21:44 53.971673 -131.061093 320 34012ft 463kts
11-Nov-19 21:45 54.071629 -131.202138 320 34012ft 463kts
11-Nov-19 21:46 54.171899 -131.344544 320 34011ft 463kts
11-Nov-19 21:47 54.271158 -131.486436 320 34012ft 463kts
11-Nov-19 21:48 54.370653 -131.629587 320 34011ft 463kts
11-Nov-19 21:49 54.470193 -131.773757 319 34011ft 463kts
11-Nov-19 21:50 54.569101 -131.917947 319 34011ft 463kts
11-Nov-19 21:51 54.667998 -132.063081 319 34011ft 463kts
11-Nov-19 21:52 54.766468 -132.208550 319 34010ft 463kts
11-Nov-19 21:53 54.864726 -132.354670 319 34010ft 463kts
11-Nov-19 21:54 54.963737 -132.502903 319 34011ft 463kts
11-Nov-19 21:55 55.061092 -132.649633 319 34011ft 463kts
11-Nov-19 21:56 55.159539 -132.799010 318 34011ft 463kts
11-Nov-19 21:57 55.257021 -132.947926 318 34012ft 463kts
11-Nov-19 21:58 55.354890 -133.098457 318 34012ft 463kts
11-Nov-19 21:59 55.451979 -133.248810 318 34013ft 464kts
11-Nov-19 22:00 55.549779 -133.401303 318 34013ft 464kts
11-Nov-19 22:01 55.646639 -133.553371 318 34013ft 464kts
11-Nov-19 22:02 55.743650 -133.706739 318 34013ft 464kts
11-Nov-19 22:03 55.840308 -133.860609 318 34012ft 463kts
11-Nov-19 22:04 55.936663 -134.015071 318 34011ft 463kts
11-Nov-19 22:05 56.032813 -134.170286 318 34010ft 463kts
11-Nov-19 22:06 56.129056 -134.326746 317 34010ft 463kts
11-Nov-19 22:07 56.225127 -134.484033 317 34010ft 463kts
11-Nov-19 22:08 56.320728 -134.641661 317 34012ft 463kts
11-Nov-19 22:09 56.416289 -134.800351 317 34012ft 463kts
11-Nov-19 22:10 56.511526 -134.959636 317 34012ft 463kts
11-Nov-19 22:11 56.606669 -135.119910 317 34012ft 463kts
11-Nov-19 22:12 56.701660 -135.281087 317 34011ft 463kts
11-Nov-19 22:13 56.796262 -135.442771 317 34012ft 463kts
11-Nov-19 22:14 56.886192 -135.613254 308 34012ft 464kts
11-Nov-19 22:15 56.967056 -135.801474 308 34011ft 463kts
11-Nov-19 22:16 57.046872 -135.988549 308 34007ft 463kts
11-Nov-19 22:17 57.126941 -136.177729 307 34009ft 463kts
11-Nov-19 22:18 57.206508 -136.367210 307 34010ft 463kts
11-Nov-19 22:19 57.286003 -136.558032 307 34010ft 463kts
11-Nov-19 22:20 57.364793 -136.748664 307 34011ft 463kts
11-Nov-19 22:21 57.443424 -136.940442 307 34013ft 463kts
11-Nov-19 22:22 57.522412 -137.134639 307 34012ft 463kts
11-Nov-19 22:23 57.600372 -137.327871 307 34013ft 463kts
11-Nov-19 22:24 57.678297 -137.522586 307 34012ft 463kts
11-Nov-19 22:25 57.756010 -137.718365 306 34012ft 463kts
11-Nov-19 22:26 57.833281 -137.914623 306 34011ft 463kts
11-Nov-19 22:27 57.910370 -138.112044 306 34012ft 463kts
11-Nov-19 22:28 57.987055 -138.310062 306 34011ft 463kts
11-Nov-19 22:29 58.063568 -138.509283 306 34011ft 463kts
11-Nov-19 22:30 58.138723 -138.706601 305 34011ft 463kts
11-Nov-19 22:31 58.214605 -138.907505 305 34011ft 463kts
11-Nov-19 22:32 58.290106 -139.109090 305 34011ft 463kts
11-Nov-19 22:33 58.365044 -139.310872 305 34011ft 463kts
11-Nov-19 22:35 58.440143 -139.514817 305 34011ft 463kts
11-Nov-19 22:36 58.514283 -139.717894 304 34011ft 463kts
11-Nov-19 22:37 58.588680 -139.923445 304 34011ft 463kts
11-Nov-19 22:38 58.662539 -140.129280 304 34011ft 463kts
11-Nov-19 22:39 58.736019 -140.335846 304 34010ft 463kts
11-Nov-19 22:40 58.808948 -140.544264 302 34010ft 463kts
11-Nov-19 22:41 58.876129 -140.759155 300 34010ft 463kts
11-Nov-19 22:42 58.943077 -140.975178 300 34010ft 463kts
11-Nov-19 22:43 59.009753 -141.192358 300 34010ft 463kts
11-Nov-19 22:44 59.075848 -141.409667 300 34010ft 463kts
11-Nov-19 22:45 59.141621 -141.627959 300 34011ft 463kts
11-Nov-19 22:46 59.207285 -141.847962 299 34012ft 463kts
11-Nov-19 22:47 59.272060 -142.067052 299 34013ft 463kts
11-Nov-19 22:48 59.336615 -142.287492 299 34012ft 463kts
11-Nov-19 22:49 59.400993 -142.509446 299 34012ft 464kts
11-Nov-19 22:50 59.465143 -142.732771 299 34012ft 463kts
11-Nov-19 22:51 59.528505 -142.955510 299 34012ft 463kts
11-Nov-19 22:52 59.591670 -143.179727 299 34011ft 463kts
11-Nov-19 22:53 59.653256 -143.400622 299 34012ft 451kts
11-Nov-19 22:54 59.714022 -143.620440 299 34013ft 452kts
11-Nov-19 22:54 59.764307 -143.804071 298 34013ft 452kts
11-Nov-19 22:56 59.834458 -144.062769 298 34013ft 452kts
11-Nov-19 22:57 59.894242 -144.285601 298 34012ft 452kts
11-Nov-19 22:57 59.943800 -144.472004 298 34012ft 452kts
11-Nov-19 22:59 60.012654 -144.733586 297 34012ft 452kts
11-Nov-19 22:59 60.061189 -144.919826 297 34012ft 452kts
11-Nov-19 23:00 60.119553 -145.145864 297 34013ft 452kts
11-Nov-19 23:02 60.186872 -145.409467 297 34013ft 452kts
11-Nov-19 23:02 60.234698 -145.598667 297 34013ft 452kts
11-Nov-19 23:03 60.291737 -145.826446 296 34012ft 452kts
11-Nov-19 23:04 60.348467 -146.055355 296 34012ft 452kts
11-Nov-19 23:05 60.405047 -146.286063 296 34011ft 452kts
11-Nov-19 23:06 60.461328 -146.517991 296 34011ft 452kts
11-Nov-19 23:07 60.507285 -146.758446 288 34014ft 452kts
11-Nov-19 23:08 60.547657 -147.004609 288 34014ft 452kts
11-Nov-19 23:09 60.587564 -147.251376 288 34012ft 452kts
11-Nov-19 23:10 60.626580 -147.496033 288 33556ft 451kts
11-Nov-19 23:11 60.665015 -147.740472 287 31361ft 451kts
11-Nov-19 23:12 60.703357 -147.987547 287 28199ft 460kts
11-Nov-19 23:13 60.741882 -148.239644 287 25100ft 458kts
11-Nov-19 23:14 60.778632 -148.486118 287 22332ft 447kts
11-Nov-19 23:15 60.813762 -148.724858 285 19466ft 437kts
11-Nov-19 23:16 60.847188 -148.955364 285 16933ft 419kts
11-Nov-19 23:17 60.878875 -149.176992 286 14351ft 393kts
11-Nov-19 23:18 60.912475 -149.349669 294 12214ft 385kts
11-Nov-19 23:19 60.943605 -149.498107 294 10863ft 362kts
11-Nov-19 23:20 60.974630 -149.647505 294 10263ft 301kts
11-Nov-19 23:21 60.996680 -149.749152 306 9748ft 293kts
11-Nov-19 23:22 61.062719 -149.864567 322 8195ft 284kts
11-Nov-19 23:23 61.104396 -150.055314 268 6174ft 273kts
11-Nov-19 23:24 61.102191 -150.212807 269 5233ft 250kts
11-Nov-19 23:25 61.100343 -150.346698 269 4678ft 221kts
11-Nov-19 23:26 61.098732 -150.472381 269 3969ft 211kts
11-Nov-19 23:27 61.103983 -150.590255 318 3247ft 198kts
11-Nov-19 23:28 61.151858 -150.590756 57 2282ft 181kts
11-Nov-19 23:29 61.163666 -150.490814 86 1634ft 165kts
11-Nov-19 23:30 61.168113 -150.397479 89 1624ft 161kts
11-Nov-19 23:31 61.167972 -150.322534 90 1622ft 160kts
11-Nov-19 23:32 61.167972 -150.322534 90 1622ft 160kts
11-Nov-19 23:33 61.167630 -150.273444 90 1486ft 138kts
11-Nov-19 23:34 61.167726 -150.191840 89 1673ft 139kts
11-Nov-19 23:35 61.167826 -150.116510 90 952ft 128kts
11-Nov-19 23:36 61.167820 -150.042554 91 214ft 124kts
11-Nov-19 23:37 61.168059 -149.996752 67 159ft 34kts
11-Nov-19 23:38 61.173444 -149.986746 30 159ft 18kts
11-Nov-19 23:39 61.174423 -149.984956 65 159ft 4kts
11-Nov-19 23:40 61.174593 -149.984174 65 159ft 0kts
11-Nov-19 23:41 61.174593 -149.984175 65 159ft 0kts
11-Nov-19 23:42 61.174593 -149.984175 65 159ft 0kts

Navigation Log

Ident Type
Flight plan parsing failed, navigation log unavailable